Time;durP1;ratioP1;P1;durP2;ratioP2;P2;SDS_P1;SDS_P2;PMS_P1;PMS_P2;Temp;Humidity;BMP_temperature;BMP_pressure;BME280_temperature;BME280_humidity;BME280_pressure;Samples;Min_cycle;Max_cycle;Signal;HPM_P1;HPM_P2
2023/01/21 00:00:39;;;;;;;35.63;16.38;;;-1.60;99.90;;;;;;5043929;28;20132;-88
2023/01/21 00:03:08;;;;;;;34.50;15.98;;;-1.60;99.90;;;;;;5026327;28;20545;-88
2023/01/21 00:05:33;;;;;;;34.97;17.30;;;-1.60;99.90;;;;;;5043481;28;20042;-89
2023/01/21 00:07:59;;;;;;;35.88;16.73;;;-1.50;99.90;;;;;;5027793;28;20042;-88
2023/01/21 00:10:28;;;;;;;39.05;17.65;;;-1.50;99.90;;;;;;5022640;28;20045;-88
2023/01/21 00:12:54;;;;;;;42.63;18.45;;;-1.50;99.90;;;;;;5045219;28;20556;-89
2023/01/21 00:15:19;;;;;;;38.92;17.63;;;-1.50;99.90;;;;;;5047276;28;20045;-89
2023/01/21 00:17:45;;;;;;;42.35;17.35;;;-1.50;99.90;;;;;;5046569;28;20037;-88
2023/01/21 00:20:13;;;;;;;44.03;19.33;;;-1.50;99.90;;;;;;5029720;28;20041;-88
2023/01/21 00:22:39;;;;;;;38.92;17.48;;;-1.30;99.90;;;;;;5030075;28;20485;-89
2023/01/21 00:25:05;;;;;;;37.55;18.70;;;-1.30;99.90;;;;;;5046772;28;20049;-89
2023/01/21 00:27:30;;;;;;;39.63;18.25;;;-1.30;99.90;;;;;;5045246;28;20041;-89
2023/01/21 00:29:56;;;;;;;46.03;19.77;;;-1.20;99.90;;;;;;5030291;28;20384;-88
2023/01/21 00:32:22;;;;;;;47.78;20.48;;;-1.20;99.90;;;;;;5045872;28;20060;-88
2023/01/21 00:34:49;;;;;;;50.47;20.73;;;-1.10;99.90;;;;;;5046784;28;20406;-88
2023/01/21 00:37:15;;;;;;;41.22;17.67;;;-1.00;99.90;;;;;;5030026;28;20495;-89
2023/01/21 00:39:43;;;;;;;50.95;21.15;;;-1.00;99.90;;;;;;5031230;28;20048;-89
2023/01/21 00:42:10;;;;;;;45.15;18.38;;;-0.90;99.90;;;;;;5047060;28;20091;-89
2023/01/21 00:44:36;;;;;;;44.15;19.02;;;-0.90;99.90;;;;;;5046515;28;20053;-89
2023/01/21 00:47:03;;;;;;;43.55;18.58;;;-0.90;99.90;;;;;;5029718;28;20056;-90
2023/01/21 00:49:28;;;;;;;46.30;20.02;;;-0.90;99.90;;;;;;5027566;28;20071;-89
2023/01/21 00:51:54;;;;;;;45.47;19.85;;;-0.80;99.90;;;;;;5011510;28;20480;-89
2023/01/21 00:54:20;;;;;;;53.53;21.02;;;-0.80;99.90;;;;;;5026533;28;20037;-89
2023/01/21 00:56:45;;;;;;;43.90;19.00;;;-0.80;99.90;;;;;;5026876;28;20045;-88
2023/01/21 00:59:11;;;;;;;45.58;20.08;;;-0.80;99.90;;;;;;5011642;28;20051;-89
2023/01/21 01:01:37;;;;;;;46.92;19.77;;;0.00;99.90;;;;;;5011521;28;20065;-89
2023/01/21 01:04:06;;;;;;;45.00;18.65;;;-0.80;99.90;;;;;;5009614;28;20504;-89
2023/01/21 01:06:33;;;;;;;41.53;18.85;;;-0.80;99.90;;;;;;5010790;28;20045;-89
2023/01/21 01:08:59;;;;;;;44.97;20.20;;;-0.70;99.90;;;;;;5037837;28;20041;-90
2023/01/21 01:11:26;;;;;;;44.13;19.63;;;-0.70;99.90;;;;;;5010100;28;20049;-89
2023/01/21 01:13:53;;;;;;;45.78;20.40;;;-0.70;99.90;;;;;;5010751;28;20081;-89
2023/01/21 01:16:20;;;;;;;44.05;18.90;;;-0.70;99.90;;;;;;5013838;28;20049;-90
2023/01/21 01:18:46;;;;;;;44.10;19.05;;;-0.70;99.90;;;;;;5014634;28;20117;-89
2023/01/21 01:21:14;;;;;;;45.13;19.67;;;-0.70;99.90;;;;;;5030990;28;20088;-90
2023/01/21 01:23:40;;;;;;;43.92;19.00;;;-0.70;99.90;;;;;;5044938;28;20045;-90
2023/01/21 01:26:10;;;;;;;41.17;18.08;;;-0.70;99.90;;;;;;5033749;28;20056;-89
2023/01/21 01:28:35;;;;;;;44.00;19.88;;;-0.70;99.90;;;;;;5050657;28;20041;-89
2023/01/21 01:31:04;;;;;;;42.40;18.33;;;-0.20;99.90;;;;;;5032595;28;20049;-89
2023/01/21 01:33:30;;;;;;;42.47;18.27;;;0.10;99.90;;;;;;5050376;28;20047;-89
2023/01/21 01:36:00;;;;;;;41.25;19.50;;;-0.70;99.90;;;;;;5034568;28;20036;-89
2023/01/21 01:38:26;;;;;;;39.60;18.73;;;-0.70;99.90;;;;;;5050959;28;20475;-88
2023/01/21 01:40:52;;;;;;;44.30;18.60;;;-0.70;99.90;;;;;;5033917;28;20056;-89
2023/01/21 01:43:45;;;;;;;46.15;18.90;;;-0.30;99.90;;;;;;5032813;28;20052;-89
2023/01/21 01:46:11;;;;;;;45.95;20.15;;;-0.70;99.90;;;;;;5019339;28;20053;-88
2023/01/21 01:48:37;;;;;;;44.40;19.27;;;-0.70;99.90;;;;;;5049575;28;20506;-89
2023/01/21 01:51:03;;;;;;;47.55;19.52;;;-0.70;99.90;;;;;;5029616;28;20045;-90
2023/01/21 01:53:31;;;;;;;43.63;19.15;;;-0.50;99.90;;;;;;5027751;28;20055;-89
2023/01/21 01:55:57;;;;;;;51.00;19.80;;;-0.60;99.90;;;;;;5050500;28;20041;-89
2023/01/21 01:58:23;;;;;;;44.63;19.42;;;-0.60;99.90;;;;;;5032824;28;20044;-89
2023/01/21 02:00:49;;;;;;;43.78;18.40;;;-0.60;99.90;;;;;;5029859;28;20046;-90
2023/01/21 02:06:01;;;;;;;43.67;18.42;;;-0.60;99.90;;;;;;5030534;28;20056;-89
2023/01/21 02:08:32;;;;;;;40.60;19.05;;;0.20;99.90;;;;;;5012530;28;20579;-89
2023/01/21 02:10:57;;;;;;;42.35;18.70;;;-0.60;99.90;;;;;;5013401;28;20049;-89
2023/01/21 02:13:28;;;;;;;48.70;19.10;;;-0.70;99.90;;;;;;5032473;28;20047;-89
2023/01/21 02:16:28;;;;;;;46.53;18.85;;;-0.60;99.90;;;;;;5032793;28;20041;-89
2023/01/21 02:19:13;;;;;;;39.60;17.27;;;-0.50;99.90;;;;;;5033005;28;20040;-89
2023/01/21 02:22:24;;;;;;;42.80;18.30;;;-0.50;99.90;;;;;;5033571;28;20098;-89
2023/01/21 02:24:59;;;;;;;41.22;17.58;;;-0.50;99.90;;;;;;5006039;28;20053;-89
2023/01/21 02:27:45;;;;;;;40.88;16.92;;;-0.50;99.90;;;;;;5017234;28;20123;-89
2023/01/21 02:30:22;;;;;;;40.22;17.70;;;-0.50;99.90;;;;;;5033184;28;20049;-89
2023/01/21 02:33:08;;;;;;;41.38;16.70;;;-0.50;99.90;;;;;;5031654;28;20487;-89
2023/01/21 02:35:45;;;;;;;45.35;17.52;;;-0.50;99.90;;;;;;5032848;28;20143;-89
2023/01/21 02:38:51;;;;;;;49.42;17.20;;;-0.50;99.90;;;;;;5031914;28;20128;-90
2023/01/21 02:41:55;;;;;;;41.38;17.95;;;-0.50;99.90;;;;;;5016508;28;20064;-90
2023/01/21 02:44:39;;;;;;;39.17;17.10;;;-0.40;99.90;;;;;;5012924;28;20467;-89
2023/01/21 02:47:12;;;;;;;43.92;18.48;;;-0.50;99.90;;;;;;5028434;28;20053;-88
2023/01/21 02:50:00;;;;;;;41.78;17.25;;;-0.40;99.90;;;;;;5028885;28;20394;-89
2023/01/21 02:52:26;;;;;;;42.67;18.15;;;-0.20;99.90;;;;;;5028444;28;20061;-89
2023/01/21 02:55:00;;;;;;;49.90;18.90;;;-0.40;99.90;;;;;;5047918;28;20056;-89
2023/01/21 02:57:41;;;;;;;50.70;19.50;;;-0.40;99.90;;;;;;5028462;28;20336;-89
2023/01/21 03:00:16;;;;;;;46.25;18.25;;;-0.40;99.90;;;;;;5017639;28;20096;-89
2023/01/21 03:02:47;;;;;;;44.50;18.92;;;-0.40;99.90;;;;;;5028595;28;20463;-88
2023/01/21 03:05:39;;;;;;;51.28;19.42;;;-0.40;99.90;;;;;;5023952;28;20141;-89
2023/01/21 03:08:29;;;;;;;45.75;19.20;;;-0.40;99.90;;;;;;5049142;28;20063;-89
2023/01/21 03:11:18;;;;;;;49.47;18.83;;;-0.40;99.90;;;;;;5048449;28;20479;-87
2023/01/21 03:16:57;;;;;;;48.20;19.48;;;0.40;99.90;;;;;;5028750;28;20228;-89
2023/01/21 03:19:48;;;;;;;51.50;19.55;;;-0.50;99.90;;;;;;5017269;28;20075;-88
2023/01/21 03:22:18;;;;;;;48.90;19.63;;;-0.40;99.90;;;;;;5016545;28;20045;-90
2023/01/21 03:24:47;;;;;;;48.40;19.20;;;-0.30;99.90;;;;;;5043583;28;20079;-88
2023/01/21 03:27:18;;;;;;;50.33;19.73;;;-0.30;99.90;;;;;;5031389;28;20033;-90
2023/01/21 03:29:46;;;;;;;50.13;20.20;;;-0.30;99.90;;;;;;5038116;28;20041;-89
2023/01/21 03:32:15;;;;;;;52.70;21.00;;;-0.30;99.90;;;;;;5011149;28;20088;-89
2023/01/21 03:34:45;;;;;;;49.42;19.38;;;-0.30;99.90;;;;;;5028282;28;20103;-89
2023/01/21 03:37:40;;;;;;;51.22;20.70;;;-0.30;99.90;;;;;;5015556;28;20050;-89
2023/01/21 03:40:17;;;;;;;51.90;21.25;;;-0.30;99.90;;;;;;5010583;28;20418;-89
2023/01/21 03:42:49;;;;;;;49.45;19.00;;;-0.30;99.90;;;;;;5043766;28;20049;-89
2023/01/21 03:45:18;;;;;;;46.95;18.83;;;0.30;99.90;;;;;;5027291;28;20045;-89
2023/01/21 03:47:53;;;;;;;51.00;20.25;;;-0.40;99.90;;;;;;5030641;28;20041;-90
2023/01/21 03:50:24;;;;;;;46.17;19.05;;;-0.30;99.90;;;;;;5047153;28;20087;-88
2023/01/21 03:53:02;;;;;;;40.35;18.45;;;-0.30;99.90;;;;;;5029019;28;20057;-89
2023/01/21 03:55:28;;;;;;;49.45;18.98;;;-0.30;99.90;;;;;;5031180;28;20048;-88
2023/01/21 03:57:55;;;;;;;47.83;19.42;;;-0.20;99.90;;;;;;5047275;28;20041;-88
2023/01/21 04:00:42;;;;;;;46.28;20.00;;;-0.20;99.90;;;;;;5045897;28;20486;-89
2023/01/21 04:03:13;;;;;;;44.80;18.05;;;0.80;99.90;;;;;;5045866;28;20061;-88
2023/01/21 04:05:54;;;;;;;47.40;20.88;;;-0.20;99.90;;;;;;5047186;28;20049;-88
2023/01/21 04:08:20;;;;;;;46.85;20.15;;;-0.40;99.90;;;;;;5027786;28;20069;-88
2023/01/21 04:10:49;;;;;;;45.88;19.23;;;-0.10;99.90;;;;;;5027324;28;20613;-88
2023/01/21 04:13:20;;;;;;;47.28;19.40;;;-0.20;99.90;;;;;;5043160;28;20037;-89
2023/01/21 04:15:54;;;;;;;43.75;19.63;;;0.60;99.90;;;;;;5017390;28;20036;-89
2023/01/21 04:18:20;;;;;;;43.60;18.60;;;-0.30;99.90;;;;;;5046835;28;20045;-89
2023/01/21 04:20:46;;;;;;;44.88;18.95;;;-0.50;99.90;;;;;;5046930;28;20110;-88
2023/01/21 04:23:19;;;;;;;35.72;16.65;;;-0.40;99.90;;;;;;5046204;28;20045;-88
2023/01/21 04:25:51;;;;;;;37.65;17.42;;;-0.50;99.90;;;;;;5030190;28;20431;-88
2023/01/21 04:28:26;;;;;;;39.40;18.20;;;0.30;99.90;;;;;;5046804;28;20495;-88
2023/01/21 04:30:52;;;;;;;40.67;17.88;;;-0.60;99.90;;;;;;5045703;28;20128;-88
2023/01/21 04:33:17;;;;;;;39.05;17.90;;;-0.60;99.90;;;;;;5029779;28;20124;-88
2023/01/21 04:35:43;;;;;;;42.42;18.52;;;-0.50;99.90;;;;;;5025862;28;20474;-89
2023/01/21 04:38:12;;;;;;;41.03;18.00;;;-0.50;99.90;;;;;;5043106;28;20484;-88
2023/01/21 04:40:38;;;;;;;41.30;18.17;;;0.10;99.90;;;;;;5043153;28;20227;-89
2023/01/21 04:43:04;;;;;;;39.72;18.10;;;-0.50;99.90;;;;;;5043686;28;20583;-89
2023/01/21 04:45:29;;;;;;;37.75;17.40;;;-0.50;99.90;;;;;;5046141;28;20048;-87
2023/01/21 04:47:55;;;;;;;37.28;17.00;;;0.00;99.90;;;;;;5046907;28;20041;-88
2023/01/21 04:50:21;;;;;;;41.88;18.08;;;-0.40;99.90;;;;;;5031242;28;20041;-89
2023/01/21 04:52:46;;;;;;;40.28;17.60;;;-0.50;99.90;;;;;;5033232;28;20549;-89
2023/01/21 04:55:12;;;;;;;39.58;17.58;;;-0.50;99.90;;;;;;5050482;28;20045;-88
2023/01/21 04:57:38;;;;;;;40.83;18.50;;;-0.50;99.90;;;;;;5050960;28;20464;-88
2023/01/21 05:00:05;;;;;;;38.90;18.90;;;-0.60;99.90;;;;;;5041224;28;20103;-88
2023/01/21 05:02:31;;;;;;;38.17;17.60;;;-0.60;99.90;;;;;;5014589;28;20080;-88
2023/01/21 05:04:57;;;;;;;41.63;19.38;;;-0.60;99.90;;;;;;5047458;28;20049;-87
2023/01/21 05:07:23;;;;;;;40.45;17.73;;;-0.70;99.90;;;;;;5034274;28;20117;-88
2023/01/21 05:09:48;;;;;;;34.85;16.42;;;-0.80;99.90;;;;;;5032966;28;20045;-88
2023/01/21 05:12:14;;;;;;;36.58;17.08;;;-0.80;99.90;;;;;;5034217;28;20040;-88
2023/01/21 05:14:40;;;;;;;42.20;18.88;;;-0.80;99.90;;;;;;5034094;28;20067;-88
2023/01/21 05:17:05;;;;;;;38.10;17.48;;;0.10;99.90;;;;;;5031008;28;20053;-88
2023/01/21 05:19:31;;;;;;;37.10;17.83;;;-0.90;99.90;;;;;;5050247;28;20049;-88
2023/01/21 05:21:57;;;;;;;39.78;19.15;;;-0.90;99.90;;;;;;5066826;28;20041;-88
2023/01/21 05:24:22;;;;;;;35.75;17.08;;;-0.90;99.90;;;;;;5049777;28;20090;-88
2023/01/21 05:26:48;;;;;;;38.45;18.10;;;-0.90;99.90;;;;;;5032354;28;20040;-88
2023/01/21 05:29:15;;;;;;;35.13;15.90;;;-1.00;99.90;;;;;;5066009;28;20049;-88
2023/01/21 05:31:44;;;;;;;34.42;15.85;;;-1.00;99.90;;;;;;5032758;28;20063;-88
2023/01/21 05:34:11;;;;;;;40.50;17.30;;;-1.00;99.90;;;;;;5032171;28;20048;-88
2023/01/21 05:36:37;;;;;;;40.60;16.83;;;-1.00;99.90;;;;;;5032211;28;20170;-88
2023/01/21 05:39:03;;;;;;;40.85;18.05;;;-1.00;99.90;;;;;;5048718;28;20093;-89
2023/01/21 05:41:29;;;;;;;36.78;16.83;;;-0.90;99.90;;;;;;5027231;28;20605;-89
2023/01/21 05:43:54;;;;;;;42.50;16.75;;;-0.90;99.90;;;;;;5046040;28;20045;-89
2023/01/21 05:46:20;;;;;;;43.83;18.98;;;-0.90;99.90;;;;;;5048273;28;20139;-89
2023/01/21 05:48:45;;;;;;;43.53;17.10;;;-0.90;99.90;;;;;;5031466;28;20040;-88
2023/01/21 05:51:11;;;;;;;41.22;17.40;;;-0.90;99.90;;;;;;5029100;28;20100;-89
2023/01/21 05:53:37;;;;;;;44.38;18.90;;;-0.90;99.90;;;;;;5012857;28;20034;-89
2023/01/21 05:56:03;;;;;;;44.08;18.70;;;-0.90;99.90;;;;;;5029351;28;20052;-88
2023/01/21 05:58:28;;;;;;;44.67;19.20;;;-0.90;99.90;;;;;;5047964;28;20041;-88
2023/01/21 06:00:56;;;;;;;42.50;18.80;;;-0.90;99.90;;;;;;5048531;28;20048;-87
2023/01/21 06:03:22;;;;;;;41.63;18.63;;;-0.80;99.90;;;;;;5048260;28;20060;-89
2023/01/21 06:05:49;;;;;;;42.75;18.33;;;-0.40;99.90;;;;;;5032475;28;20041;-89
2023/01/21 06:08:15;;;;;;;42.25;19.13;;;-0.70;99.90;;;;;;5045810;28;20407;-88
2023/01/21 06:10:41;;;;;;;40.13;18.40;;;-0.70;99.90;;;;;;5028864;28;20045;-89
2023/01/21 06:13:10;;;;;;;48.72;20.52;;;-0.70;99.90;;;;;;5030729;28;20067;-88
2023/01/21 06:15:35;;;;;;;47.17;18.80;;;-0.70;99.90;;;;;;5032597;28;20053;-89
2023/01/21 06:18:01;;;;;;;50.33;19.35;;;-0.60;99.90;;;;;;5032486;28;20059;-88
2023/01/21 06:20:29;;;;;;;41.80;18.52;;;-0.60;99.90;;;;;;5031325;28;20055;-88
2023/01/21 06:22:55;;;;;;;43.20;17.70;;;-0.60;99.90;;;;;;5047741;28;20051;-88
2023/01/21 06:25:21;;;;;;;48.28;18.95;;;-0.60;99.90;;;;;;5032941;28;20364;-88
2023/01/21 06:27:46;;;;;;;44.75;19.85;;;-0.50;99.90;;;;;;5050080;28;20045;-88
2023/01/21 06:30:12;;;;;;;49.42;19.55;;;-0.50;99.90;;;;;;5029276;28;20160;-89
2023/01/21 06:32:38;;;;;;;47.60;19.48;;;-0.50;99.90;;;;;;5028338;28;20479;-88
2023/01/21 06:35:04;;;;;;;45.00;19.70;;;-0.40;99.90;;;;;;5043125;28;20041;-88
2023/01/21 06:37:29;;;;;;;48.92;20.75;;;-0.40;99.90;;;;;;5031537;28;20049;-89
2023/01/21 06:39:55;;;;;;;43.13;18.30;;;0.20;99.90;;;;;;5030341;28;20036;-89
2023/01/21 06:42:21;;;;;;;45.35;18.45;;;-0.40;99.90;;;;;;5047328;28;20045;-89
2023/01/21 06:44:47;;;;;;;48.78;19.33;;;-0.30;99.90;;;;;;5048758;28;20049;-90
2023/01/21 06:47:13;;;;;;;46.25;19.00;;;-0.30;99.90;;;;;;5048855;28;20037;-89
2023/01/21 06:49:38;;;;;;;50.00;19.83;;;0.20;99.90;;;;;;5031460;28;20068;-88
2023/01/21 06:52:05;;;;;;;48.50;18.98;;;-0.30;99.90;;;;;;5049158;28;20068;-89
2023/01/21 06:54:31;;;;;;;45.28;19.55;;;-1.30;99.90;;;;;;5028967;28;20049;-91
2023/01/21 06:56:56;;;;;;;43.13;18.45;;;-0.30;99.90;;;;;;5020998;28;20118;-89
2023/01/21 06:59:22;;;;;;;44.58;19.88;;;-0.20;99.90;;;;;;5032785;28;20055;-90
2023/01/21 07:01:48;;;;;;;41.25;17.98;;;-0.20;99.90;;;;;;5030305;28;20040;-89
2023/01/21 07:04:13;;;;;;;42.92;18.77;;;0.40;99.90;;;;;;5031350;28;20490;-89
2023/01/21 07:06:39;;;;;;;43.08;18.70;;;-0.20;99.90;;;;;;5030152;28;20156;-89
2023/01/21 07:09:05;;;;;;;41.72;18.73;;;-0.20;99.90;;;;;;5047882;28;20058;-92
2023/01/21 07:11:31;;;;;;;42.67;19.33;;;-0.30;99.90;;;;;;5032057;28;20041;-87
2023/01/21 07:14:00;;;;;;;43.17;17.83;;;-0.20;99.90;;;;;;5031598;28;20095;-87
2023/01/21 07:16:28;;;;;;;41.40;18.17;;;-0.20;99.90;;;;;;5048206;28;20040;-87
2023/01/21 07:18:54;;;;;;;50.20;19.08;;;0.40;99.90;;;;;;5031556;28;20052;-87
2023/01/21 07:21:20;;;;;;;46.22;18.40;;;-0.20;99.90;;;;;;5046662;28;20447;-87
2023/01/21 07:23:45;;;;;;;44.75;20.98;;;-0.20;99.90;;;;;;5025588;28;20045;-87
2023/01/21 07:26:14;;;;;;;41.90;17.27;;;-0.20;99.90;;;;;;5026099;28;20418;-88
2023/01/21 07:28:42;;;;;;;51.65;21.10;;;-0.20;99.90;;;;;;5046749;28;20507;-88
2023/01/21 07:31:08;;;;;;;43.58;18.98;;;-0.20;99.90;;;;;;5025796;28;20145;-88
2023/01/21 07:33:40;;;;;;;44.40;19.30;;;-0.20;99.90;;;;;;5044909;28;20497;-88
2023/01/21 07:36:06;;;;;;;44.95;18.75;;;-0.20;99.90;;;;;;5046778;28;20052;-88
2023/01/21 07:38:32;;;;;;;41.45;19.20;;;-0.20;99.90;;;;;;5049516;28;20049;-89
2023/01/21 07:40:58;;;;;;;39.47;18.90;;;-0.10;99.90;;;;;;5046863;28;20098;-85
2023/01/21 07:43:26;;;;;;;39.35;18.80;;;-0.10;99.90;;;;;;5046719;28;20395;-84
2023/01/21 07:45:55;;;;;;;40.75;18.02;;;-0.20;99.90;;;;;;5047190;28;20060;-83
2023/01/21 07:48:21;;;;;;;39.67;19.08;;;-0.20;99.90;;;;;;5045661;28;20041;-82
2023/01/21 07:50:46;;;;;;;42.70;20.05;;;-0.20;99.90;;;;;;5045744;28;20099;-81
2023/01/21 07:53:14;;;;;;;42.75;19.45;;;-0.10;99.90;;;;;;5045050;28;20047;-82
2023/01/21 07:55:40;;;;;;;39.03;19.63;;;-0.20;99.90;;;;;;5048300;28;20068;-81
2023/01/21 07:58:06;;;;;;;39.60;16.98;;;-0.10;99.90;;;;;;5029620;28;20691;-82
2023/01/21 08:00:31;;;;;;;34.10;15.68;;;-0.10;99.90;;;;;;5044195;28;20036;-81
2023/01/21 08:02:57;;;;;;;40.72;17.20;;;-0.30;99.90;;;;;;5026606;28;20111;-82
2023/01/21 08:05:24;;;;;;;42.20;18.67;;;-0.10;99.90;;;;;;5028666;28;20471;-83
2023/01/21 08:07:50;;;;;;;36.80;17.23;;;-0.10;99.90;;;;;;5041135;28;20049;-83
2023/01/21 08:10:17;;;;;;;51.08;19.52;;;-0.20;99.90;;;;;;5046422;28;20072;-83
2023/01/21 08:12:43;;;;;;;37.17;16.85;;;-0.10;99.90;;;;;;5045786;28;20057;-84
2023/01/21 08:15:10;;;;;;;44.75;19.27;;;-0.10;99.90;;;;;;5047107;28;20044;-83
2023/01/21 08:17:41;;;;;;;39.33;18.30;;;-0.10;99.90;;;;;;5030876;28;20084;-83
2023/01/21 08:20:08;;;;;;;42.00;18.43;;;-0.10;99.90;;;;;;5045893;28;20052;-83
2023/01/21 08:22:37;;;;;;;42.10;18.92;;;-0.10;99.90;;;;;;5047088;28;20048;-83
2023/01/21 08:25:04;;;;;;;43.50;18.48;;;-0.10;99.90;;;;;;5046874;28;20083;-83
2023/01/21 08:27:30;;;;;;;38.88;16.70;;;-0.10;99.90;;;;;;5033909;28;20163;-84
2023/01/21 08:29:56;;;;;;;50.17;21.52;;;0.00;99.90;;;;;;5049033;28;20056;-84
2023/01/21 08:32:22;;;;;;;42.67;19.52;;;;;;;;;;5049656;28;20056;-83
2023/01/21 08:34:48;;;;;;;61.13;30.75;;;;;;;;;;5021649;28;20057;-83
2023/01/21 08:37:14;;;;;;;56.42;26.40;;;;;;;;;;5049042;28;20071;-83
2023/01/21 08:39:40;;;;;;;44.90;22.40;;;;;;;;;;5051284;28;20511;-81
2023/01/21 08:42:06;;;;;;;45.67;20.55;;;;;;;;;;5049295;28;20099;-83
2023/01/21 08:44:37;;;;;;;42.47;18.83;;;;;;;;;;5049744;28;20052;-84
2023/01/21 08:47:03;;;;;;;36.72;17.67;;;;;;;;;;5049608;28;20442;-83
2023/01/21 08:49:29;;;;;;;42.28;17.77;;;;;;;;;;5050055;28;20071;-82
2023/01/21 08:51:55;;;;;;;42.63;19.38;;;;;;;;;;5016650;28;20763;-83
2023/01/21 08:54:21;;;;;;;40.45;18.77;;;;;;;;;;5048955;28;20132;-83
2023/01/21 08:56:47;;;;;;;38.03;17.42;;;;;;;;;;5050587;28;20037;-84
2023/01/21 08:59:13;;;;;;;44.03;18.75;;;;;;;;;;5049307;28;20522;-83
2023/01/21 09:01:39;;;;;;;47.78;20.65;;;;;;;;;;5048599;28;20044;-84
2023/01/21 09:04:06;;;;;;;38.92;18.20;;;;;;;;;;5048567;28;20529;-85
2023/01/21 09:06:32;;;;;;;42.35;19.85;;;;;;;;;;5048741;28;20056;-84
2023/01/21 09:08:59;;;;;;;40.95;19.02;;;;;;;;;;5049256;28;20390;-84
2023/01/21 09:11:25;;;;;;;39.72;19.23;;;;;;;;;;5048611;28;20052;-84
2023/01/21 09:13:51;;;;;;;39.60;18.20;;;;;;;;;;5048641;28;20484;-83
2023/01/21 09:16:19;;;;;;;42.53;19.35;;;;;;;;;;5048449;28;20193;-84
2023/01/21 09:18:48;;;;;;;40.00;19.23;;;;;;;;;;5045396;28;20080;-84
2023/01/21 09:21:14;;;;;;;41.80;19.85;;;;;;;;;;5031846;28;20140;-84
2023/01/21 09:23:40;;;;;;;42.05;20.08;;;;;;;;;;5031574;28;20406;-84
2023/01/21 09:26:13;;;;;;;39.00;19.17;;;0.80;99.90;;;;;;5048184;28;20399;-85
2023/01/21 09:28:43;;;;;;;44.00;19.27;;;0.70;99.90;;;;;;5049062;28;20424;-83
2023/01/21 09:31:12;;;;;;;48.08;21.92;;;0.60;99.90;;;;;;5049557;28;20064;-83
2023/01/21 09:33:39;;;;;;;39.70;18.00;;;0.70;99.90;;;;;;5046462;28;20049;-83
2023/01/21 09:36:06;;;;;;;41.58;19.70;;;0.70;99.90;;;;;;5048080;28;20044;-82
2023/01/21 09:38:32;;;;;;;41.40;20.00;;;0.60;99.90;;;;;;5048344;28;20437;-83
2023/01/21 09:41:29;;;;;;;41.05;19.52;;;0.60;99.90;;;;;;5049901;28;20140;-82
2023/01/21 09:44:13;;;;;;;41.60;20.33;;;0.70;99.90;;;;;;5016372;28;20049;-82
2023/01/21 09:47:05;;;;;;;42.97;20.27;;;0.70;99.90;;;;;;5038721;28;20041;-82
2023/01/21 09:49:42;;;;;;;42.35;20.05;;;;;;;;;;5037723;28;20107;-82
2023/01/21 09:52:31;;;;;;;40.85;18.75;;;1.00;99.90;;;;;;5045877;28;20129;-82
2023/01/21 09:54:58;;;;;;;44.47;20.98;;;0.60;99.90;;;;;;5049487;28;20055;-83
2023/01/21 09:57:35;;;;;;;40.22;19.83;;;;;;;;;;5043682;28;20041;-83
2023/01/21 10:00:07;;;;;;;42.60;21.20;;;;;;;;;;5048655;28;20507;-84
2023/01/21 10:02:39;;;;;;;46.40;21.27;;;;;;;;;;5046310;28;20092;-83
2023/01/21 10:05:23;;;;;;;47.10;21.80;;;;;;;;;;5046234;28;20049;-83
2023/01/21 10:07:59;;;;;;;42.92;21.92;;;;;;;;;;5046845;28;20098;-83
2023/01/21 10:10:34;;;;;;;40.90;20.58;;;1.20;99.90;;;;;;5046932;28;20033;-84
2023/01/21 10:13:34;;;;;;;41.05;21.15;;;1.30;99.90;;;;;;5046087;28;20444;-84
2023/01/21 10:16:13;;;;;;;38.47;19.55;;;1.40;99.90;;;;;;5047087;28;20055;-84
2023/01/21 10:18:42;;;;;;;42.45;23.15;;;1.30;99.90;;;;;;5047325;28;20131;-85
2023/01/21 10:21:41;;;;;;;43.17;21.58;;;1.30;99.90;;;;;;5047672;28;20052;-84
2023/01/21 10:24:07;;;;;;;41.70;22.20;;;1.50;99.90;;;;;;5049856;28;20111;-85
2023/01/21 10:26:34;;;;;;;37.45;20.65;;;2.70;99.90;;;;;;5045733;28;20044;-84
2023/01/21 10:29:00;;;;;;;34.35;19.13;;;1.50;99.90;;;;;;5026446;28;20044;-84
2023/01/21 10:31:28;;;;;;;37.42;20.50;;;;;;;;;;5028730;28;20045;-84
2023/01/21 10:33:54;;;;;;;38.65;21.10;;;1.60;99.90;;;;;;5047608;28;20099;-84
2023/01/21 10:36:44;;;;;;;38.47;20.35;;;1.40;99.90;;;;;;5022872;28;20045;-84
2023/01/21 10:39:35;;;;;;;40.20;25.92;;;1.40;99.90;;;;;;5028374;28;20041;-84
2023/01/21 10:42:05;;;;;;;46.45;28.92;;;1.50;99.90;;;;;;5030728;28;20114;-84
2023/01/21 10:44:50;;;;;;;36.25;20.63;;;;;;;;;;5028481;28;20050;-84
2023/01/21 10:47:30;;;;;;;39.60;24.05;;;1.60;99.90;;;;;;5046538;28;20558;-85
2023/01/21 10:50:19;;;;;;;35.22;20.63;;;1.60;99.90;;;;;;5046771;28;20091;-85
2023/01/21 10:52:56;;;;;;;33.92;19.17;;;1.80;99.90;;;;;;5047457;28;20040;-85
2023/01/21 10:55:33;;;;;;;36.42;19.75;;;1.80;99.90;;;;;;5048442;28;20395;-84
2023/01/21 10:58:02;;;;;;;36.67;19.92;;;1.90;99.90;;;;;;5046309;28;20044;-84
2023/01/21 11:00:41;;;;;;;34.03;20.10;;;1.60;99.90;;;;;;5027011;28;20383;-85
2023/01/21 11:03:29;;;;;;;35.40;19.33;;;1.60;99.90;;;;;;5016507;28;20384;-88
2023/01/21 11:05:58;;;;;;;37.63;20.58;;;1.60;99.90;;;;;;5027616;28;20444;-86
2023/01/21 11:08:26;;;;;;;37.45;19.90;;;1.60;99.90;;;;;;5031178;28;20044;-88
2023/01/21 11:10:56;;;;;;;35.55;19.52;;;2.90;99.90;;;;;;5028871;28;20350;-90
2023/01/21 11:13:22;;;;;;;33.83;19.95;;;1.40;99.90;;;;;;5030281;28;20044;-89
2023/01/21 11:15:58;;;;;;;33.42;18.73;;;1.60;99.90;;;;;;5025199;28;20399;-88
2023/01/21 11:18:40;;;;;;;39.15;18.88;;;1.80;99.90;;;;;;5029872;28;20651;-88
2023/01/21 11:21:21;;;;;;;36.30;19.48;;;1.90;99.90;;;;;;5028646;28;20114;-89
2023/01/21 11:23:53;;;;;;;33.25;18.40;;;3.00;99.90;;;;;;5018344;28;20045;-88
2023/01/21 11:26:34;;;;;;;33.58;19.35;;;2.00;99.90;;;;;;5047704;28;20045;-88
2023/01/21 11:29:14;;;;;;;32.38;19.33;;;2.10;99.90;;;;;;5027811;28;20206;-88
2023/01/21 11:31:47;;;;;;;34.53;19.33;;;2.10;99.90;;;;;;5027074;28;20045;-89
2023/01/21 11:34:20;;;;;;;34.72;20.98;;;2.10;99.90;;;;;;5034257;28;20527;-88
2023/01/21 11:37:01;;;;;;;35.53;20.02;;;2.20;99.90;;;;;;5032840;28;20163;-89
2023/01/21 11:39:32;;;;;;;34.47;20.88;;;2.20;99.90;;;;;;5030007;28;20135;-90
2023/01/21 11:42:12;;;;;;;32.65;19.67;;;2.00;99.90;;;;;;5034390;28;20053;-90
2023/01/21 11:44:55;;;;;;;34.55;20.20;;;2.80;99.90;;;;;;5028321;28;20382;-89
2023/01/21 11:47:45;;;;;;;31.10;18.20;;;2.20;99.90;;;;;;5064951;28;20059;-88
2023/01/21 11:50:17;;;;;;;42.70;29.65;;;2.50;99.90;;;;;;5032877;28;20344;-89
2023/01/21 11:52:43;;;;;;;32.60;21.17;;;2.70;99.90;;;;;;5032976;28;20488;-90
2023/01/21 11:55:20;;;;;;;33.72;21.42;;;2.80;99.90;;;;;;5037502;28;20170;-89
2023/01/21 11:57:53;;;;;;;28.88;18.40;;;3.00;99.90;;;;;;5052770;28;20052;-92
2023/01/21 12:00:24;;;;;;;40.42;32.22;;;3.10;99.90;;;;;;5032785;28;20082;-89
2023/01/21 12:02:58;;;;;;;27.83;16.02;;;3.30;99.90;;;;;;5013585;28;20068;-89
2023/01/21 12:05:36;;;;;;;29.20;17.38;;;3.30;99.90;;;;;;5013768;28;20365;-90
2023/01/21 12:08:13;;;;;;;26.13;17.10;;;3.60;99.90;;;;;;5012141;28;20049;-89
2023/01/21 12:10:51;;;;;;;29.63;16.50;;;3.50;99.90;;;;;;5015519;28;20077;-90
2023/01/21 12:13:19;;;;;;;27.40;16.13;;;4.40;99.90;;;;;;5024761;28;20045;-91
2023/01/21 12:15:54;;;;;;;26.77;17.27;;;3.40;99.90;;;;;;5022118;28;20460;-89
2023/01/21 12:18:32;;;;;;;27.42;17.80;;;3.00;99.90;;;;;;5012585;28;20038;-90
2023/01/21 12:21:00;;;;;;;27.10;17.35;;;3.60;99.90;;;;;;5012872;28;20045;-91
2023/01/21 12:23:35;;;;;;;26.27;15.75;;;3.70;99.90;;;;;;5013066;28;20108;-91
2023/01/21 12:26:27;;;;;;;26.65;16.00;;;3.80;99.90;;;;;;5012000;28;20491;-91
2023/01/21 12:29:11;;;;;;;24.13;14.67;;;5.10;99.90;;;;;;5014088;28;20064;-90
2023/01/21 12:31:42;;;;;;;24.70;15.43;;;3.70;99.90;;;;;;5032536;28;20111;-90
2023/01/21 12:34:27;;;;;;;27.13;19.23;;;3.80;99.90;;;;;;5028347;28;20054;-88
2023/01/21 12:37:05;;;;;;;25.98;19.02;;;4.80;99.90;;;;;;5012147;28;20152;-89
2023/01/21 12:39:36;;;;;;;25.35;15.75;;;3.80;99.90;;;;;;5012475;28;20105;-90
2023/01/21 12:42:33;;;;;;;20.45;14.88;;;3.80;99.90;;;;;;5011688;28;20045;-91
2023/01/21 12:45:13;;;;;;;22.70;14.55;;;5.10;99.90;;;;;;5020278;28;20100;-90
2023/01/21 12:47:57;;;;;;;23.33;15.15;;;3.90;99.90;;;;;;5029303;28;20049;-90
2023/01/21 12:50:26;;;;;;;22.25;14.73;;;3.10;99.90;;;;;;5025722;28;20061;-90
2023/01/21 12:52:58;;;;;;;23.00;13.70;;;3.90;99.90;;;;;;5031750;28;20079;-90
2023/01/21 12:55:39;;;;;;;22.38;14.07;;;4.00;99.90;;;;;;5032542;28;20135;-90
2023/01/21 12:58:17;;;;;;;20.30;13.35;;;3.50;99.90;;;;;;5032431;28;20136;-90
2023/01/21 13:00:47;;;;;;;18.85;13.65;;;4.10;99.90;;;;;;5025850;28;20041;-91
2023/01/21 13:03:28;;;;;;;18.35;12.73;;;4.10;99.90;;;;;;5030763;28;20194;-90
2023/01/21 13:06:01;;;;;;;21.45;13.13;;;4.20;99.90;;;;;;5034359;28;20056;-90